Flight Track Log - Related Links

Times and Time Zones

All times are in EDT time to prevent confusion due to time zone crossing. See the SWA127 flight status page for this flight to view local times or setup timezone preferences in your user account.

Time Position Orientation Groundspeed Altitude Reporting Facility
EDT Latitude Longitude Course Direction KTS MPH feet Rate Location/Type
Tue 11:38:22 AM 29.6356 -95.2675 154° Southeast 136 157 700  Level Houston Center
Tue 11:39:18 AM 29.6000 -95.2478 154° Southeast 179 206 2,300 1,949 Climbing Houston Center
Tue 11:40:19 AM 29.5489 -95.2178 153° Southeast 209 241 4,500 2,304 Climbing Houston Center
Tue 11:41:10 AM 29.4961 -95.2319 193° South 247 284 6,600 2,708 Climbing Houston Center
Tue 11:42:12 AM 29.4292 -95.2647 203° Southwest 259 298 9,600 2,274 Climbing Houston Center
Tue 11:43:14 AM 29.3497 -95.3044 204° Southwest 308 354 11,300 2,016 Climbing Houston Center
Tue 11:44:17 AM 29.2606 -95.3486 203° Southwest 345 397 13,800 2,784 Climbing Houston Center
Tue 11:45:19 AM 29.1475 -95.4053 204° Southwest 366 421 17,100 2,661 Climbing Houston Center
Tue 11:46:21 AM 29.0519 -95.4525 203° Southwest 372 428 19,300 2,129 Climbing Houston Center
Tue 11:47:23 AM 28.9686 -95.5278 218° Southwest 384 442 21,500 2,081 Climbing Houston Center
Tue 11:48:25 AM 28.8869 -95.6100 221° Southwest 392 451 23,600 1,887 Climbing Houston Center
Tue 11:49:27 AM 28.8031 -95.6922 221° Southwest 396 456 25,400 2,032 Climbing Houston Center
Tue 11:50:29 AM 28.6983 -95.7936 220° Southwest 408 470 27,800 2,419 Climbing Houston Center
Tue 11:51:31 AM 28.6169 -95.8731 221° Southwest 394 453 30,400 2,112 Climbing Houston Center
Tue 11:52:34 AM 28.5386 -95.9500 221° Southwest 379 436 32,200 1,392 Climbing Houston Center
Tue 11:53:36 AM 28.4572 -96.0281 220° Southwest 368 423 33,300 871 Climbing Houston Center
Tue 11:54:38 AM 28.3775 -96.1058 221° Southwest 375 432 34,000 339 Climbing Houston Center
Tue 11:55:40 AM 28.2981 -96.1825 220° Southwest 373 429 34,000  Level Houston Center
Tue 11:56:42 AM 28.2178 -96.2589 220° Southwest 376 433 34,000  Level Houston Center
Tue 11:57:44 AM 28.1381 -96.3356 220° Southwest 376 433 34,000  Level Houston Center
Tue 11:58:46 AM 28.0425 -96.4281 221° Southwest 376 433 34,000  Level Houston Center
Tue 11:59:48 AM 27.9633 -96.5036 220° Southwest 372 428 34,000 -48 Level Houston Center
Tue 12:00:51 PM 27.8842 -96.5803 221° Southwest 374 430 33,900  Descending Houston Center
Tue 12:01:53 PM 27.8044 -96.6558 220° Southwest 373 429 34,000 48 Climbing Houston Center
Tue 12:02:55 PM 27.7250 -96.7317 220° Southwest 374 430 34,000 -145 Level Houston Center
Tue 12:03:57 PM 27.6306 -96.8203 220° Southwest 369 425 33,700 -1,694 Descending Houston Center
Tue 12:04:59 PM 27.5531 -96.8944 220° Southwest 366 421 30,500 -3,242 Descending Houston Center
Tue 12:06:01 PM 27.4728 -96.9706 220° Southwest 372 428 27,000 -2,855 Descending Houston Center
Tue 12:07:03 PM 27.3894 -97.0472 219° Southwest 377 434 24,600 -2,177 Descending Houston Center
Tue 12:08:05 PM 27.3147 -97.1192 221° Southwest 361 415 22,500 -2,016 Descending Houston Center
Tue 12:09:08 PM 27.2411 -97.1878 220° Southwest 347 399 20,400 -2,016 Descending Houston Center
Tue 12:10:10 PM 27.1617 -97.2458 213° Southwest 344 396 18,300 -2,325 Descending Houston Center
Tue 12:10:28 PM 27.1203 -97.2644 202° Southwest 340 391 17,300 -2,226 Descending Houston Center
Tue 12:11:12 PM 27.0561 -97.2917 201° Southwest 339 390 16,000 -736 Descending Houston Center
Tue 12:12:14 PM 26.9731 -97.3294 202° Southwest 327 376 16,000 -145 Level Houston Center
Tue 12:13:16 PM 26.8908 -97.3656 201° Southwest 319 367 15,700 -1,645 Descending Houston Center
Tue 12:14:18 PM 26.8061 -97.4194 210° Southwest 326 375 12,600 -2,538 Descending Houston Center
Tue 12:15:26 PM 26.7167 -97.4797 211° Southwest 321 369 10,200 -1,907 Descending Houston Center
Tue 12:16:27 PM 26.6522 -97.5236 211° Southwest 279 321 8,500 -1,866 Descending Houston Center
Tue 12:17:25 PM 26.5889 -97.5639 210° Southwest 264 304 6,500 -1,900 Descending Houston Center
Tue 12:18:27 PM 26.5275 -97.6050 211° Southwest 258 297 4,700 -1,597 Descending Houston Center
Tue 12:19:29 PM 26.4661 -97.6517 214° Southwest 247 284 3,200 -1,452 Descending Houston Center
Tue 12:19:29 PM 26.4661 -97.6517 214° Southwest 257 296 3,200 -1,548 Level Houston Center
Tue 12:20:31 PM 26.4042 -97.6561 184° South 234 269 1,600 -871 Descending Houston Center
Tue 12:21:33 PM 26.3425 -97.6592 183° South 194 223 1,400 -194 Descending Houston Center
Tue 12:22:35 PM 26.3000 -97.6586 179° South 156 180 1,200 -387 Descending Houston Center
Tue 12:23:37 PM 26.2661 -97.6586 180° South 128 147 600 -532 Descending Houston Center
Tue 12:24:39 PM 26.2267 -97.6586 180° South 126 145 100 -484 Descending Houston Center
Tue 12:26:00 PM 26.2271 -97.6551 North  Level Estimated

Login

Don't have an account? Register now (free) for customized features, flight alerts, and more!